22°C
Gosport, Hampshire, United Kingdom
Language:  English
Updated26/06/2019 11:05:00 
 

Nearby METAR Reports

 

EGHI - Southampton Wx Centre, United Kingdom
Distance from station: NW 15mi, 24km
Updated: 26-Jun-2019 10:50:00
Mostly cloudy
Mostly cloudy
 Wind from NE
Wind: NE 10 mph , 17 km/h
Temperature: 18°C
Dew Point: 14°C
Humidity: 78%
Barometer: 1027 hPa
Clouds: Mostly cloudy
Visibility: 6 miles , 10 km
Cloud details: Mostly cloudy 518 m
2019/06/26 09:50 EGHI 260950Z 05009KT 020V090 9999 BKN017 18/14 Q1027
EGHH - Bournemouth Airport, United Kingdom
Distance from station: W 30mi, 49km
Updated: 26-Jun-2019 10:50:00
Partly cloudy
Partly cloudy
 Wind from NE
Wind: NE 13 mph , 20 km/h
Temperature: 19°C
Dew Point: 16°C
Humidity: 83%
Barometer: 1026 hPa
Clouds: Partly cloudy
Visibility: 6 miles , 10 km
Cloud details: Partly cloudy 335 m
Partly cloudy 1463 m
2019/06/26 09:50 EGHH 260950Z 04011KT 9999 SCT011 SCT048 19/16 Q1026
EGVP - Middle Wallop Airfield, United Kingdom
Distance from station: NW 31mi, 49km
Updated: 26-Jun-2019 10:50:00
Overcast
Overcast
 Wind from NE
Wind: NE 12 mph , 19 km/h
Temperature: 18°C
Dew Point: 15°C
Humidity: 83%
Barometer: 1027 hPa
Clouds: Overcast
Visibility: 6 miles , 10 km
Cloud details: Overcast 274 m
2019/06/26 09:50 EGVP 260950Z AUTO 04010KT 9999 // OVC009/// 18/15 Q1027
 
EGVO - RAF Odiham, United Kingdom
Distance from station: NNE 32mi, 52km
Updated: 26-Jun-2019 10:50:00
Overcast
Overcast
 Wind from NE
Wind: NE 10 mph , 17 km/h
Temperature: 17°C
Dew Point: 14°C
Humidity: 83%
Barometer: 1027 hPa
Clouds: Overcast
Visibility: 6 miles , 10 km
Cloud details: Overcast 274 m
2019/06/26 09:50 EGVO 260950Z 05009KT 9999 OVC009 17/14 Q1027 BECMG BKN015 GRN BECMG WHT
EGKA - Shoreham Airport, United Kingdom
Distance from station: E 37mi, 59km
Updated: 26-Jun-2019 10:50:00
Partly cloudy
Partly cloudy
 Wind from NNE
Wind: NNE 12 mph , 19 km/h
Temperature: 19°C
Dew Point: 17°C
Humidity: 88%
Barometer: 1027 hPa
Clouds: Partly cloudy
Visibility: 6 miles , 10 km
Cloud details: Partly cloudy 366 m
2019/06/26 09:50 EGKA 260950Z 03010KT 9999 SCT012 19/17 Q1027
EGDM - Boscombe Down, United Kingdom
Distance from station: NW 38mi, 61km
Updated: 26-Jun-2019 10:50:00
Mostly cloudy
Mostly cloudy
 Wind from NE
Wind: NE 10 mph , 17 km/h
Temperature: 17°C
Dew Point: 15°C
Humidity: 88%
Barometer: 1027 hPa
Clouds: Mostly cloudy
Visibility: 6 miles , 10 km
Cloud details: Mostly cloudy 244 m
2019/06/26 09:50 EGDM 260950Z 05009KT 9999 BKN008 17/15 Q1027 BECMG SCT015 RMK GRN BECMG WHT
 
EGLF - Farnborough, United Kingdom
Distance from station: NNE 38mi, 61km
Updated: 26-Jun-2019 10:50:00
Overcast
Overcast
 Wind from NE
Wind: NE 14 mph , 22 km/h
Temperature: 17°C
Dew Point: 14°C
Humidity: 83%
Barometer: 1028 hPa
Clouds: Overcast
Visibility: 6 miles , 10 km
Cloud details: Overcast 305 m
2019/06/26 09:50 EGLF 260950Z AUTO 05012KT 020V080 9999 OVC010/// 17/14 Q1028
EGKK - Gatwick Airport, United Kingdom
Distance from station: ENE 49mi, 78km
Updated: 26-Jun-2019 10:50:00
Overcast
Overcast
 Wind from NE
Wind: NE 12 mph , 19 km/h
Temperature: 18°C
Dew Point: 16°C
Humidity: 88%
Barometer: 1027 hPa
Clouds: Overcast
Visibility: 6 miles , 10 km
Cloud details: Overcast 335 m
2019/06/26 09:50 EGKK 260950Z 05010KT 020V090 9999 OVC011 18/16 Q1027
EGLL - Heathrow Airport, United Kingdom
Distance from station: NNE 57mi, 91km
Updated: 26-Jun-2019 10:50:00
Overcast
Overcast
 Wind from NE
Wind: NE 8 mph , 13 km/h
Temperature: 17°C
Dew Point: 15°C
Humidity: 88%
Barometer: 1028 hPa
Clouds: Overcast
Visibility: 6 miles , 10 km
Cloud details: Overcast 305 m
2019/06/26 09:50 EGLL 260950Z AUTO 04007KT 020V080 9999 OVC010 17/15 Q1028
 
EGUB - RAF Benson, United Kingdom
Distance from station: N 58mi, 93km
Updated: 26-Jun-2019 10:50:00
Overcast
Overcast
 Wind from NE
Wind: NE 12 mph , 19 km/h
Temperature: 15°C
Dew Point: 14°C
Humidity: 94%
Barometer: 1028 hPa
Clouds: Overcast
Visibility: 6 miles , 10 km
Cloud details: Overcast 213 m
2019/06/26 09:50 EGUB 260950Z 04010KT 9999 OVC007 15/14 Q1028 BECMG BKN015 RMK GRN BECMG WHT
EGWU - RAF Northolt, United Kingdom
Distance from station: NNE 62mi, 99km
Updated: 26-Jun-2019 10:50:00
Overcast
Overcast
 Wind from ENE
Wind: ENE 12 mph , 19 km/h
Temperature: 17°C
Dew Point: 13°C
Humidity: 77%
Barometer: 1028 hPa
Clouds: Overcast
Visibility: 6 miles , 10 km
Cloud details: Mostly cloudy 305 m
Overcast 335 m
2019/06/26 09:50 EGWU 260950Z 07010KT 9999 BKN010 OVC011 17/13 Q1028 BECMG SCT015
EGKB - Biggin Hill Airport, United Kingdom
Distance from station: NE 62mi, 100km
Updated: 26-Jun-2019 10:50:00
Mostly cloudy
Mostly cloudy
 Wind from NNE
Wind: NNE 13 mph , 20 km/h
Temperature: 16°C
Dew Point: 15°C
Humidity: 94%
Barometer: 1028 hPa
Clouds: Mostly cloudy
Visibility: 6 miles , 9 km
Cloud details: Mostly cloudy 152 m
2019/06/26 09:50 EGKB 260950Z 03011KT 9000 3000S BKN005 16/15 Q1028
 
EGDY - RNAS Yeovilton, United Kingdom
Distance from station: WNW 66mi, 107km
Updated: 26-Jun-2019 10:50:00
Overcast
Overcast
 Wind from NE
Wind: NE 9 mph , 15 km/h
Temperature: 17°C
Dew Point: 16°C
Humidity: 94%
Barometer: 1027 hPa
Clouds: Overcast
Visibility: 6 miles , 10 km
Cloud details: Overcast 244 m
2019/06/26 09:50 EGDY 260950Z AUTO 04008KT 9999 OVC008/// 17/16 Q1027
EGUO - Colerne Airfield, United Kingdom
Distance from station: NW 67mi, 108km
Updated: 14-Feb-2019 22:50:00
NOT Current
Clear
Clear
 Wind from ENE
Wind: ENE 1 mph , 2 km/h
Temperature: 1°C
Dew Point: 0°C
Humidity: 93%
Barometer: 1029 hPa
Summary: Clear
Visibility: greater than 7 miles , 10 km
2019/02/14 22:50 EGUO 142250Z 06001KT CAVOK 01/00 Q1029 BLU NOSIG
EGVA - RAF Fairford, United Kingdom
Distance from station: NNW 67mi, 108km
Updated: 26-Jun-2019 10:56:00
Overcast
Overcast
 
Temperature: 15°C
Dew Point: 14°C
Humidity: 94%
Barometer: 1028.4 hPa
Clouds: Overcast
Cloud details: Overcast 213 m
2019/06/26 09:56 EGVA 260956Z AUTO M M M OVC007 15/14 A3037 RMK AO2 SLP287 T01510140 RVRNO $
 
EGVN - RAF Brize Norton, United Kingdom
Distance from station: NNW 71mi, 114km
Updated: 26-Jun-2019 10:50:00
Overcast
Overcast
 Wind from NE
Wind: NE 13 mph , 20 km/h
Temperature: 15°C
Dew Point: 13°C
Humidity: 88%
Barometer: 1029 hPa
Clouds: Overcast
Visibility: 6 miles , 10 km
Cloud details: Overcast 152 m
2019/06/26 09:50 EGVN 260950Z AUTO 05011KT 9999 OVC005/// 15/13 Q1029
EGLC - London City Airport, United Kingdom
Distance from station: NE 71mi, 115km
Updated: 26-Jun-2019 10:50:00
Overcast
Overcast
 Wind from NNE
Wind: NNE 6 mph , 9 km/h
Temperature: 17°C
Dew Point: 14°C
Humidity: 83%
Barometer: 1028 hPa
Clouds: Overcast
Visibility: 6 miles , 10 km
Cloud details: Overcast 305 m
2019/06/26 09:50 EGLC 260950Z AUTO 02005KT 340V080 9999 OVC010 17/14 Q1028
EGGD - Bristol Airport, United Kingdom
Distance from station: WNW 80mi, 128km
Updated: 26-Jun-2019 10:50:00
Overcast
Overcast
 Wind from ENE
Wind: ENE 16 mph , 26 km/h
Temperature: 15°C
Dew Point: 14°C
Humidity: 94%
Barometer: 1028 hPa
Clouds: Overcast
Visibility: 6 miles , 10 km
Cloud details: Overcast 91 m
2019/06/26 09:50 EGGD 260950Z AUTO 06014KT 9999 OVC003 15/14 Q1028
 
LFRC - Cherbourg-Maupertus Airport, France
Distance from station: S 81mi, 130km
Updated: 26-Jun-2019 11:00:00
Mist
Mist
 Wind from ENE
Wind: ENE 18 mph , 30 km/h
Temperature: 15°C
Dew Point: 15°C
Humidity: 100%
Barometer: 1025 hPa
Summary: Mist
Visibility: 1 mile , 2 km
2019/06/26 10:00 LFRC 261000Z AUTO 07016KT 2000 BR VV/// 15/15 Q1025 TEMPO VRB20G35KT 4000 BR BKN004 BKN080CB
EGGW - Luton Airport, United Kingdom
Distance from station: NNE 82mi, 132km
Updated: 26-Jun-2019 10:50:00
Overcast
Overcast
 Wind from NE
Wind: NE 14 mph , 22 km/h
Temperature: 14°C
Dew Point: 14°C
Humidity: 100%
Barometer: 1028 hPa
Clouds: Overcast
Visibility: 6 miles , 10 km
Cloud details: Mostly cloudy 152 m
Overcast 244 m
2019/06/26 09:50 EGGW 260950Z AUTO 04012KT 9999 BKN005 OVC008 14/14 Q1028